Time;durP1;ratioP1;P1;durP2;ratioP2;P2;SDS_P1;SDS_P2;PMS_P1;PMS_P2;Temp;Humidity;BMP_temperature;BMP_pressure;BME280_temperature;BME280_humidity;BME280_pressure;Samples;Min_cycle;Max_cycle;Signal;HPM_P1;HPM_P2
2022/01/30 00:02:00;;;;;;;31.25;5.10;;;;;;;;;;5134042;27;20445;-79
2022/01/30 00:04:26;;;;;;;29.27;4.97;;;;;;;;;;5129755;27;20043;-78
2022/01/30 00:06:52;;;;;;;27.02;4.47;;;;;;;;;;5108375;28;20536;-79
2022/01/30 00:09:21;;;;;;;31.73;4.85;;;;;;;;;;5113271;28;20035;-79
2022/01/30 00:11:53;;;;;;;26.77;4.38;;;;;;;;;;5100430;27;20384;-78
2022/01/30 00:14:21;;;;;;;27.67;4.82;;;;;;;;;;5116689;27;20484;-78
2022/01/30 00:16:55;;;;;;;26.17;5.20;;;;;;;;;;5129681;27;20035;-78
2022/01/30 00:19:35;;;;;;;22.80;3.67;;;;;;;;;;5097142;28;20051;-79
2022/01/30 00:22:39;;;;;;;21.90;4.13;;;;;;;;;;5112879;28;20043;-80
2022/01/30 00:27:21;;;;;;;33.55;5.03;;;;;;;;;;5113220;28;20409;-79
2022/01/30 00:29:47;;;;;;;28.58;4.63;;;;;;;;;;5114158;27;20054;-79
2022/01/30 00:32:14;;;;;;;30.75;4.13;;;;;;;;;;5111726;27;20054;-80
2022/01/30 00:34:40;;;;;;;23.98;4.50;;;;;;;;;;5113908;28;20465;-80
2022/01/30 00:37:06;;;;;;;29.92;4.78;;;;;;;;;;5113135;28;20036;-80
2022/01/30 00:39:32;;;;;;;24.95;4.93;;;;;;;;;;5117660;28;20690;-79
2022/01/30 00:41:58;;;;;;;31.05;4.60;;;;;;;;;;5113810;28;20043;-79
2022/01/30 00:44:24;;;;;;;29.63;4.47;;;;;;;;;;5122343;28;20031;-78
2022/01/30 00:46:51;;;;;;;27.52;4.65;;;;;;;;;;5124595;28;20441;-78
2022/01/30 00:49:17;;;;;;;32.88;4.80;;;;;;;;;;5095908;28;20053;-78
2022/01/30 00:51:43;;;;;;;30.17;4.63;;;;;;;;;;5112959;28;20039;-80
2022/01/30 00:54:09;;;;;;;30.92;5.35;;;;;;;;;;5121103;28;20046;-79
2022/01/30 00:56:35;;;;;;;28.92;5.10;;;;;;;;;;5112609;28;20079;-79
2022/01/30 00:59:02;;;;;;;23.30;4.82;;;;;;;;;;5112957;28;20058;-78
2022/01/30 01:01:28;;;;;;;28.00;4.35;;;;;;;;;;5115803;28;20127;-79
2022/01/30 01:03:54;;;;;;;21.63;4.53;;;;;;;;;;5108903;28;20043;-78
2022/01/30 01:06:20;;;;;;;28.23;4.57;;;;;;;;;;5131516;28;20122;-79
2022/01/30 01:09:01;;;;;;;27.30;3.63;;;;;;;;;;5112650;28;20518;-78
2022/01/30 01:11:57;;;;;;;21.05;3.92;;;;;;;;;;5112767;28;20086;-78
2022/01/30 01:25:14;;;;;;;23.05;3.72;;;;;;;;;;5128492;27;20400;-78
2022/01/30 01:27:40;;;;;;;27.35;4.25;;;;;;;;;;5117212;27;20039;-79
2022/01/30 01:30:06;;;;;;;20.65;3.53;;;;;;;;;;5116815;27;20050;-78
2022/01/30 01:32:32;;;;;;;22.85;3.90;;;;;;;;;;5116255;28;20130;-78
2022/01/30 01:34:59;;;;;;;26.92;3.40;;;;;;;;;;5106736;28;20051;-78
2022/01/30 01:37:26;;;;;;;21.17;3.58;;;;;;;;;;5116240;28;20106;-78
2022/01/30 01:39:52;;;;;;;27.80;4.28;;;;;;;;;;5097938;28;20435;-78
2022/01/30 01:42:18;;;;;;;22.17;3.92;;;;;;;;;;5098182;28;20082;-78
2022/01/30 01:44:49;;;;;;;22.70;4.07;;;;;;;;;;5121594;27;20050;-78
2022/01/30 01:47:18;;;;;;;26.30;4.18;;;;;;;;;;5124330;27;20146;-78
2022/01/30 01:49:46;;;;;;;24.30;3.95;;;;;;;;;;5136758;27;20050;-78
2022/01/30 01:52:19;;;;;;;25.33;3.60;;;;;;;;;;5118708;27;20048;-78
2022/01/30 01:54:47;;;;;;;27.92;4.05;;;;;;;;;;5121386;27;20043;-79
2022/01/30 01:57:13;;;;;;;28.05;4.65;;;;;;;;;;5118093;27;20103;-79
2022/01/30 01:59:41;;;;;;;29.35;4.85;;;;;;;;;;5129537;27;20051;-79
2022/01/30 02:02:07;;;;;;;31.02;5.00;;;;;;;;;;5115766;28;20051;-78
2022/01/30 02:04:33;;;;;;;30.50;5.50;;;;;;;;;;5119545;27;20054;-79
2022/01/30 02:07:19;;;;;;;33.35;5.18;;;;;;;;;;5097702;28;20043;-78
2022/01/30 02:09:45;;;;;;;33.20;5.53;;;;;;;;;;5115536;28;20382;-79
2022/01/30 02:12:19;;;;;;;38.45;5.53;;;;;;;;;;5115644;27;20040;-79
2022/01/30 02:26:04;;;;;;;34.13;5.50;;;;;;;;;;5135507;27;20403;-77
2022/01/30 02:28:33;;;;;;;31.50;5.47;;;;;;;;;;5115429;27;20495;-78
2022/01/30 02:31:05;;;;;;;33.67;4.78;;;;;;;;;;5115298;28;20047;-79
2022/01/30 02:33:31;;;;;;;33.58;5.40;;;;;;;;;;5097528;28;20047;-79
2022/01/30 02:35:57;;;;;;;29.58;5.18;;;;;;;;;;5115406;28;20043;-79
2022/01/30 02:38:24;;;;;;;26.85;4.72;;;;;;;;;;5128675;27;20045;-78
2022/01/30 02:40:53;;;;;;;36.15;5.18;;;;;;;;;;5133560;27;20049;-78
2022/01/30 02:43:24;;;;;;;35.55;5.60;;;;;;;;;;5096908;28;20490;-79
2022/01/30 02:46:03;;;;;;;38.47;6.00;;;;;;;;;;5115005;27;20043;-78
2022/01/30 02:48:45;;;;;;;35.30;6.60;;;;;;;;;;5114903;27;20050;-79
2022/01/30 02:51:14;;;;;;;39.08;5.80;;;;;;;;;;5114780;28;20081;-78
2022/01/30 02:53:44;;;;;;;26.92;4.82;;;;;;;;;;5114823;27;20043;-78
2022/01/30 02:56:10;;;;;;;32.90;5.35;;;;;;;;;;5114646;28;20101;-78
2022/01/30 02:58:36;;;;;;;30.30;6.00;;;;;;;;;;5114231;27;20051;-78
2022/01/30 03:01:03;;;;;;;35.35;5.30;;;;;;;;;;5129965;27;20058;-79
2022/01/30 03:03:29;;;;;;;32.17;5.05;;;;;;;;;;5115567;27;20062;-78
2022/01/30 03:05:55;;;;;;;31.95;5.40;;;;;;;;;;5135165;27;20043;-79
2022/01/30 03:08:21;;;;;;;31.20;5.47;;;;;;;;;;5134145;27;20383;-78
2022/01/30 03:10:47;;;;;;;38.30;6.22;;;;;;;;;;5118052;27;20043;-78
2022/01/30 03:13:13;;;;;;;30.17;5.28;;;;;;;;;;5114600;27;20039;-78
2022/01/30 03:15:39;;;;;;;26.95;5.45;;;;;;;;;;5135146;27;20129;-78
2022/01/30 03:18:05;;;;;;;28.20;5.15;;;;;;;;;;5120341;27;20089;-79
2022/01/30 03:20:32;;;;;;;37.15;5.63;;;;;;;;;;5114450;28;20043;-78
2022/01/30 03:22:59;;;;;;;33.65;5.22;;;;;;;;;;5115230;27;20043;-79
2022/01/30 03:25:25;;;;;;;41.53;6.22;;;;;;;;;;5114465;28;20154;-79
2022/01/30 03:27:53;;;;;;;37.10;5.90;;;;;;;;;;5114134;27;20421;-79
2022/01/30 03:30:27;;;;;;;38.85;6.40;;;;;;;;;;5129798;27;20065;-79
2022/01/30 03:32:53;;;;;;;32.45;6.30;;;;;;;;;;5117840;27;20082;-78
2022/01/30 03:35:19;;;;;;;35.90;6.60;;;;;;;;;;5134320;27;20134;-78
2022/01/30 03:37:45;;;;;;;39.72;6.28;;;;;;;;;;5113103;27;20043;-79
2022/01/30 03:40:12;;;;;;;40.28;7.03;;;;;;;;;;5117239;27;20506;-79
2022/01/30 03:42:38;;;;;;;40.97;6.00;;;;;;;;;;5114413;27;20039;-79
2022/01/30 03:45:04;;;;;;;43.03;6.53;;;;;;;;;;5079128;28;20043;-79
2022/01/30 03:47:30;;;;;;;36.72;6.95;;;;;;;;;;5096024;28;20088;-78
2022/01/30 03:49:56;;;;;;;43.05;6.55;;;;;;;;;;5113702;28;20127;-79
2022/01/30 03:52:23;;;;;;;31.95;5.45;;;;;;;;;;5119284;27;20038;-78
2022/01/30 03:54:49;;;;;;;39.25;6.35;;;;;;;;;;5115737;27;20414;-79
2022/01/30 03:57:15;;;;;;;43.95;6.45;;;;;;;;;;5128163;27;20035;-79
2022/01/30 03:59:41;;;;;;;36.30;5.38;;;;;;;;;;5133913;27;20055;-79
2022/01/30 04:02:07;;;;;;;32.97;5.75;;;;;;;;;;5107174;28;20470;-79
2022/01/30 04:04:33;;;;;;;30.38;5.82;;;;;;;;;;5113535;28;20100;-79
2022/01/30 04:07:00;;;;;;;37.45;5.75;;;;;;;;;;5113586;28;20079;-79
2022/01/30 04:09:27;;;;;;;32.10;5.60;;;;;;;;;;5113452;28;20040;-79
2022/01/30 04:11:53;;;;;;;32.85;6.18;;;;;;;;;;5118397;27;20044;-78
2022/01/30 04:14:20;;;;;;;37.05;6.13;;;;;;;;;;5123647;27;20143;-78
2022/01/30 04:16:47;;;;;;;41.58;6.32;;;;;;;;;;5117991;27;20054;-78
2022/01/30 04:19:13;;;;;;;37.00;6.32;;;;;;;;;;5113283;28;20043;-78
2022/01/30 04:21:39;;;;;;;43.92;7.00;;;;;;;;;;5116326;27;20039;-78
2022/01/30 04:24:06;;;;;;;37.70;5.93;;;;;;;;;;5133603;27;20611;-78
2022/01/30 04:26:32;;;;;;;39.55;6.32;;;;;;;;;;5129191;27;20455;-78
2022/01/30 04:28:58;;;;;;;46.78;7.20;;;;;;;;;;5113118;28;20122;-79
2022/01/30 04:31:25;;;;;;;43.08;7.50;;;;;;;;;;5113182;28;20144;-78
2022/01/30 04:33:51;;;;;;;39.60;7.07;;;;;;;;;;5112945;28;20504;-79
2022/01/30 04:36:24;;;;;;;40.33;7.15;;;;;;;;;;5113526;28;20047;-79
2022/01/30 04:38:58;;;;;;;43.60;7.25;;;;;;;;;;5124216;27;20811;-80
2022/01/30 05:00:08;;;;;;;42.33;7.32;;;;;;;;;;5096915;28;20425;-78
2022/01/30 05:05:22;;;;;;;50.88;8.43;;;;;;;;;;5116847;28;20085;-79
2022/01/30 05:07:48;;;;;;;44.92;7.20;;;;;;;;;;5132734;27;20141;-79
2022/01/30 05:10:14;;;;;;;48.97;7.50;;;;;;;;;;5137184;27;20046;-78
2022/01/30 05:12:49;;;;;;;50.70;8.02;;;;;;;;;;5136739;27;20047;-78
2022/01/30 05:15:18;;;;;;;47.88;8.40;;;;;;;;;;5131887;27;20047;-79
2022/01/30 05:17:44;;;;;;;50.13;8.45;;;;;;;;;;5132214;27;20085;-78
2022/01/30 05:20:11;;;;;;;45.00;8.02;;;;;;;;;;5137456;27;20118;-79
2022/01/30 05:22:37;;;;;;;50.00;7.65;;;;;;;;;;5121125;27;20035;-79
2022/01/30 05:25:04;;;;;;;45.83;8.27;;;;;;;;;;5116740;28;20122;-79
2022/01/30 05:27:30;;;;;;;36.70;6.72;;;;;;;;;;5116330;27;20074;-78
2022/01/30 05:29:56;;;;;;;48.92;7.85;;;;;;;;;;5116543;28;20130;-78
2022/01/30 05:32:23;;;;;;;43.45;7.28;;;;;;;;;;5098206;28;20415;-79
2022/01/30 05:34:49;;;;;;;47.25;7.93;;;;;;;;;;5116693;27;20122;-79
2022/01/30 05:37:17;;;;;;;50.97;7.72;;;;;;;;;;5120901;27;20035;-79
2022/01/30 05:39:43;;;;;;;57.13;8.88;;;;;;;;;;5116215;28;20039;-80
2022/01/30 05:42:10;;;;;;;50.08;8.05;;;;;;;;;;5116385;27;20442;-80
2022/01/30 05:45:25;;;;;;;56.10;8.38;;;;;;;;;;5098252;28;20119;-80
2022/01/30 05:47:36;;;;;;;47.63;7.03;;;;;;;;;;5114038;27;20039;-77
2022/01/30 05:50:02;;;;;;;51.22;8.30;;;;;;;;;;5136777;27;20046;-78
2022/01/30 05:52:28;;;;;;;47.60;8.68;;;;;;;;;;5100176;28;20165;-77
2022/01/30 05:54:54;;;;;;;48.80;8.93;;;;;;;;;;5116071;28;20043;-78
2022/01/30 05:57:21;;;;;;;61.03;9.80;;;;;;;;;;5131163;27;20562;-79
2022/01/30 05:59:47;;;;;;;42.00;7.85;;;;;;;;;;5136032;27;20455;-79
2022/01/30 06:02:13;;;;;;;43.33;7.50;;;;;;;;;;5118076;27;20040;-79
2022/01/30 06:04:39;;;;;;;47.47;7.57;;;;;;;;;;5117595;27;20054;-79
2022/01/30 06:07:08;;;;;;;47.70;8.07;;;;;;;;;;5115644;28;20044;-78
2022/01/30 06:09:34;;;;;;;49.72;7.65;;;;;;;;;;5115713;28;20453;-78
2022/01/30 06:12:00;;;;;;;46.10;8.30;;;;;;;;;;5115766;27;20138;-78
2022/01/30 06:14:27;;;;;;;49.85;9.45;;;;;;;;;;5121065;27;20043;-78
2022/01/30 06:16:54;;;;;;;47.90;8.75;;;;;;;;;;5115715;27;20047;-78
2022/01/30 06:19:22;;;;;;;44.20;7.43;;;;;;;;;;5127021;27;20050;-77
2022/01/30 06:21:48;;;;;;;43.70;8.23;;;;;;;;;;5135748;27;20050;-79
2022/01/30 06:24:15;;;;;;;49.47;7.88;;;;;;;;;;5097307;28;20123;-79
2022/01/30 06:26:41;;;;;;;53.53;9.07;;;;;;;;;;5115549;28;20050;-79
2022/01/30 06:29:07;;;;;;;40.42;7.43;;;;;;;;;;5115702;27;20082;-78
2022/01/30 06:31:33;;;;;;;49.70;8.38;;;;;;;;;;5135905;27;20065;-78
2022/01/30 06:33:59;;;;;;;42.75;7.05;;;;;;;;;;5099845;28;20045;-78
2022/01/30 06:36:25;;;;;;;46.00;7.15;;;;;;;;;;5098099;28;20042;-80
2022/01/30 06:38:53;;;;;;;47.08;7.40;;;;;;;;;;5115127;28;20444;-78
2022/01/30 06:41:19;;;;;;;44.83;8.02;;;;;;;;;;5098413;28;20515;-78
2022/01/30 06:43:45;;;;;;;46.97;8.00;;;;;;;;;;5115400;28;20067;-77
2022/01/30 06:46:12;;;;;;;50.20;7.97;;;;;;;;;;5124078;27;20039;-78
2022/01/30 06:48:38;;;;;;;48.65;8.55;;;;;;;;;;5129803;27;20483;-77
2022/01/30 06:51:07;;;;;;;51.35;8.63;;;;;;;;;;5129516;27;20039;-77
2022/01/30 06:53:34;;;;;;;47.42;7.57;;;;;;;;;;5115097;28;20036;-79
2022/01/30 06:56:00;;;;;;;50.17;8.50;;;;;;;;;;5115122;27;20181;-77
2022/01/30 06:58:26;;;;;;;54.10;9.02;;;;;;;;;;5114741;28;20035;-79
2022/01/30 07:00:52;;;;;;;48.65;8.82;;;;;;;;;;5115031;28;20082;-78
2022/01/30 07:03:18;;;;;;;59.65;8.98;;;;;;;;;;5125046;27;20050;-79
2022/01/30 07:05:44;;;;;;;46.92;8.68;;;;;;;;;;5114373;27;20050;-77
2022/01/30 07:08:10;;;;;;;44.75;9.05;;;;;;;;;;5096087;28;20048;-79
2022/01/30 07:10:38;;;;;;;47.42;8.15;;;;;;;;;;5116019;28;20437;-79
2022/01/30 07:13:04;;;;;;;57.55;8.98;;;;;;;;;;5118199;27;20096;-78
2022/01/30 07:15:30;;;;;;;60.65;9.57;;;;;;;;;;5096489;28;20043;-78
2022/01/30 07:17:56;;;;;;;62.25;10.23;;;;;;;;;;5118589;27;20078;-78
2022/01/30 07:20:22;;;;;;;49.92;9.20;;;;;;;;;;5130809;27;20050;-79
2022/01/30 07:22:49;;;;;;;51.30;8.73;;;;;;;;;;5114617;28;20065;-79
2022/01/30 07:25:15;;;;;;;56.72;9.02;;;;;;;;;;5114268;28;20090;-80
2022/01/30 07:27:42;;;;;;;55.88;8.25;;;;;;;;;;5115338;27;20050;-78
2022/01/30 07:30:09;;;;;;;53.80;9.35;;;;;;;;;;5114379;27;20043;-78
2022/01/30 07:32:35;;;;;;;48.47;8.20;;;;;;;;;;5114149;28;20039;-78
2022/01/30 07:35:01;;;;;;;49.88;8.23;;;;;;;;;;5114086;28;20062;-77
2022/01/30 07:37:28;;;;;;;45.50;8.88;;;;;;;;;;5113753;28;20143;-79
2022/01/30 07:39:58;;;;;;;42.20;8.27;;;;;;;;;;5114213;27;20055;-79
2022/01/30 07:42:24;;;;;;;58.20;10.07;;;;;;;;;;5118899;27;20065;-80
2022/01/30 07:44:50;;;;;;;54.30;8.63;;;;;;;;;;5109066;27;20058;-78
2022/01/30 07:47:16;;;;;;;52.03;8.80;;;;;;;;;;5118066;27;20114;-78
2022/01/30 07:49:43;;;;;;;46.35;8.18;;;;;;;;;;5110185;27;20039;-78
2022/01/30 07:52:09;;;;;;;46.33;9.05;;;;;;;;;;5120724;27;20035;-79
2022/01/30 07:54:35;;;;;;;43.75;8.07;;;;;;;;;;5123430;27;20101;-79
2022/01/30 07:57:03;;;;;;;48.95;8.82;;;;;;;;;;5113070;28;20093;-80
2022/01/30 07:59:29;;;;;;;54.28;8.70;;;;;;;;;;5113502;28;20043;-79
2022/01/30 08:01:56;;;;;;;41.20;7.82;;;;;;;;;;5112987;28;20130;-78
2022/01/30 08:04:22;;;;;;;42.78;7.75;;;;;;;;;;5113258;28;20391;-78
2022/01/30 08:06:48;;;;;;;54.28;8.50;;;;;;;;;;5113622;28;20122;-80
2022/01/30 08:09:15;;;;;;;48.22;8.10;;;;;;;;;;5113498;28;20043;-77
2022/01/30 08:11:41;;;;;;;48.05;8.70;;;;;;;;;;5113444;28;20043;-80
2022/01/30 08:14:07;;;;;;;53.17;7.55;;;;;;;;;;5113133;28;20487;-79
2022/01/30 08:16:33;;;;;;;49.85;8.27;;;;;;;;;;5095220;28;20472;-78
2022/01/30 08:18:59;;;;;;;40.38;6.63;;;;;;;;;;5094955;28;20054;-78
2022/01/30 08:21:25;;;;;;;35.67;7.07;;;;;;;;;;5113568;28;20047;-78
2022/01/30 08:23:51;;;;;;;41.28;7.85;;;;;;;;;;5094778;28;20079;-79
2022/01/30 08:26:17;;;;;;;36.80;7.55;;;;;;;;;;5113086;28;20387;-78
2022/01/30 08:28:43;;;;;;;37.88;7.32;;;;;;;;;;5113250;28;20050;-78
2022/01/30 08:31:09;;;;;;;38.25;7.47;;;;;;;;;;5113114;28;20126;-78
2022/01/30 08:33:35;;;;;;;47.58;8.25;;;;;;;;;;5095092;28;20368;-78
2022/01/30 08:36:01;;;;;;;43.28;8.23;;;;;;;;;;5113190;28;20126;-79
2022/01/30 08:38:27;;;;;;;40.15;8.07;;;;;;;;;;5113111;28;20047;-79
2022/01/30 08:40:53;;;;;;;46.15;9.15;;;;;;;;;;5112966;28;20480;-78
2022/01/30 08:43:21;;;;;;;39.28;8.38;;;;;;;;;;5094617;28;20384;-80
2022/01/30 08:45:48;;;;;;;39.75;10.13;;;;;;;;;;5112926;28;20050;-77
2022/01/30 08:48:14;;;;;;;38.63;9.82;;;;;;;;;;5112917;28;20047;-79
2022/01/30 08:50:40;;;;;;;41.20;7.40;;;;;;;;;;5113179;28;20043;-79
2022/01/30 08:53:07;;;;;;;45.63;7.28;;;;;;;;;;5094712;28;20055;-80
2022/01/30 08:55:33;;;;;;;43.95;7.72;;;;;;;;;;5113047;28;20048;-79
2022/01/30 08:58:00;;;;;;;49.03;8.55;;;;;;;;;;5094721;28;20043;-79
2022/01/30 09:00:26;;;;;;;40.63;7.85;;;;;;;;;;5091016;28;20218;-79
2022/01/30 09:02:52;;;;;;;48.38;8.13;;;;;;;;;;5091100;28;20117;-78
2022/01/30 09:05:21;;;;;;;45.10;8.38;;;;;;;;;;5092569;28;20096;-78
2022/01/30 09:07:47;;;;;;;46.17;8.93;;;;;;;;;;5091184;28;20075;-79
2022/01/30 09:10:14;;;;;;;47.72;8.20;;;;;;;;;;5092368;28;20044;-79
2022/01/30 09:12:40;;;;;;;40.38;7.53;;;;;;;;;;5092444;28;20043;-79
2022/01/30 09:15:07;;;;;;;51.75;8.35;;;;;;;;;;5091085;28;20076;-79
2022/01/30 09:17:33;;;;;;;46.08;9.15;;;;;;;;;;5092305;28;20192;-79
2022/01/30 09:19:59;;;;;;;43.00;7.90;;;;;;;;;;5091977;28;20491;-79
2022/01/30 09:22:25;;;;;;;51.22;7.65;;;;;;;;;;5092383;28;20067;-79
2022/01/30 09:24:51;;;;;;;46.30;8.50;;;;;;;;;;5092128;28;20043;-79
2022/01/30 09:27:17;;;;;;;49.00;8.25;;;;;;;;;;5092157;28;20046;-80
2022/01/30 09:29:45;;;;;;;46.28;8.77;;;;;;;;;;5091961;28;20427;-77
2022/01/30 09:32:11;;;;;;;46.47;8.43;;;;;;;;;;5092242;28;20040;-79
2022/01/30 09:34:37;;;;;;;47.90;8.35;;;;;;;;;;5093714;28;20154;-79
2022/01/30 09:37:04;;;;;;;43.67;8.02;;;;;;;;;;5094689;28;20048;-78
2022/01/30 09:39:30;;;;;;;45.10;8.10;;;;;;;;;;5095883;28;20044;-80
2022/01/30 09:41:57;;;;;;;44.28;7.90;;;;;;;;;;5095882;28;20044;-78
2022/01/30 09:44:23;;;;;;;52.45;7.70;;;;;;;;;;5094773;28;20047;-79
2022/01/30 09:46:52;;;;;;;49.10;7.72;;;;;;;;;;5095891;28;20062;-80
2022/01/30 09:49:22;;;;;;;40.63;7.55;;;;;;;;;;5094514;28;20040;-78
2022/01/30 09:51:48;;;;;;;54.13;8.60;;;;;;;;;;5095435;28;20043;-79
2022/01/30 09:54:15;;;;;;;39.35;7.60;;;;;;;;;;5095480;28;20430;-79
2022/01/30 09:56:41;;;;;;;45.40;8.23;;;;;;;;;;5095766;28;20067;-78
2022/01/30 09:59:07;;;;;;;43.78;7.88;;;;;;;;;;5095395;28;20040;-79
2022/01/30 10:01:34;;;;;;;47.95;8.77;;;;;;;;;;5094131;28;20056;-79
2022/01/30 10:04:01;;;;;;;45.03;8.48;;;;;;;;;;5095583;28;20093;-79
2022/01/30 10:06:37;;;;;;;41.35;7.95;;;;;;;;;;5095526;28;20048;-78
2022/01/30 10:09:24;;;;;;;43.15;7.85;;;;;;;;;;5095430;28;20050;-79
2022/01/30 10:12:00;;;;;;;37.92;7.90;;;;;;;;;;5095502;28;20119;-78
2022/01/30 10:14:27;;;;;;;44.80;7.97;;;;;;;;;;5095446;28;20083;-79
2022/01/30 10:16:53;;;;;;;44.00;7.18;;;;;;;;;;5095207;28;20048;-78
2022/01/30 10:19:20;;;;;;;46.90;8.13;;;;;;;;;;5095233;28;20040;-79
2022/01/30 10:21:49;;;;;;;41.00;6.70;;;;;;;;;;5094936;28;20044;-79
2022/01/30 10:24:19;;;;;;;46.50;7.38;;;;;;;;;;5094085;28;20044;-79
2022/01/30 10:26:45;;;;;;;38.03;6.88;;;;;;;;;;5094067;28;20069;-79
2022/01/30 10:29:22;;;;;;;41.03;7.68;;;;;;;;;;5095164;28;20400;-80
2022/01/30 10:32:06;;;;;;;39.33;6.50;;;;;;;;;;5094882;28;20472;-80
2022/01/30 10:34:36;;;;;;;34.22;6.53;;;;;;;;;;5093840;28;20087;-77
2022/01/30 10:37:12;;;;;;;46.80;8.20;;;;;;;;;;5094902;28;20131;-78
2022/01/30 10:39:57;;;;;;;48.40;8.38;;;;;;;;;;5094815;28;20056;-77
2022/01/30 10:42:30;;;;;;;43.42;7.88;;;;;;;;;;5094745;28;20036;-78
2022/01/30 10:44:57;;;;;;;37.30;6.82;;;;;;;;;;5093953;28;20485;-79
2022/01/30 10:47:23;;;;;;;36.90;7.38;;;;;;;;;;5093031;28;20097;-77
2022/01/30 10:49:49;;;;;;;40.33;7.22;;;;;;;;;;5093645;28;20043;-80
2022/01/30 10:52:16;;;;;;;39.42;7.03;;;;;;;;;;5093538;28;20087;-78
2022/01/30 10:54:42;;;;;;;43.90;7.68;;;;;;;;;;5094502;28;20066;-79
2022/01/30 10:57:09;;;;;;;47.67;6.90;;;;;;;;;;5094231;28;20488;-78
2022/01/30 10:59:42;;;;;;;47.72;7.70;;;;;;;;;;5093227;28;20063;-76
2022/01/30 11:02:15;;;;;;;40.90;7.25;;;;;;;;;;5114723;28;20047;-80
2022/01/30 11:04:41;;;;;;;36.88;7.03;;;;;;;;;;5096459;28;20433;-79
2022/01/30 11:07:08;;;;;;;42.22;7.28;;;;;;;;;;5114846;28;20053;-79
2022/01/30 11:12:10;;;;;;;52.53;7.60;;;;;;;;;;5114490;28;20051;-79
2022/01/30 11:14:52;;;;;;;41.67;7.57;;;;;;;;;;5114452;28;20066;-79
2022/01/30 11:17:20;;;;;;;48.28;7.75;;;;;;;;;;5114465;28;20039;-79
2022/01/30 11:19:52;;;;;;;38.25;8.65;;;;;;;;;;5114459;28;20079;-78
2022/01/30 11:22:28;;;;;;;42.70;7.88;;;;;;;;;;5114290;28;20043;-78
2022/01/30 11:24:59;;;;;;;43.45;7.63;;;;;;;;;;5114584;28;20043;-79
2022/01/30 11:27:25;;;;;;;;;;;;;;;;;;5096728;28;20519;-79
2022/01/30 11:29:52;;;;;;;38.38;7.75;;;;;;;;;;5114171;28;20003;-79
2022/01/30 11:32:19;;;;;;;46.33;7.85;;;;;;;;;;5114085;28;20069;-80
2022/01/30 11:34:46;;;;;;;38.58;6.85;;;;;;;;;;5113948;28;20483;-77
2022/01/30 11:37:13;;;;;;;43.35;7.32;;;;;;;;;;5113827;28;20176;-78
2022/01/30 11:39:44;;;;;;;40.67;7.15;;;;;;;;;;5114272;28;20035;-78
2022/01/30 11:42:25;;;;;;;41.75;7.03;;;;;;;;;;5113872;28;20035;-80
2022/01/30 11:45:11;;;;;;;43.38;7.88;;;;;;;;;;5095861;28;20043;-77
2022/01/30 11:47:48;;;;;;;47.15;8.57;;;;;;;;;;5114021;28;20051;-77
2022/01/30 11:50:16;;;;;;;36.15;6.72;;;;;;;;;;5113704;28;20048;-79
2022/01/30 11:52:52;;;;;;;46.65;7.72;;;;;;;;;;5113880;28;20153;-80
2022/01/30 11:55:37;;;;;;;42.88;7.15;;;;;;;;;;5114037;28;20035;-79
2022/01/30 11:58:04;;;;;;;32.88;6.47;;;;;;;;;;5113407;28;20088;-78
2022/01/30 12:00:34;;;;;;;35.65;6.78;;;;;;;;;;5113599;28;20055;-79
2022/01/30 12:03:20;;;;;;;38.75;6.40;;;;;;;;;;5113661;28;20151;-80
2022/01/30 12:05:47;;;;;;;35.20;6.72;;;;;;;;;;5113415;28;20077;-79
2022/01/30 12:08:32;;;;;;;44.25;7.10;;;;;;;;;;5095224;28;20071;-78
2022/01/30 12:10:58;;;;;;;37.53;6.63;;;;;;;;;;5094810;28;20529;-79
2022/01/30 12:13:42;;;;;;;45.97;7.32;;;;;;;;;;5113212;28;20085;-73
2022/01/30 12:16:28;;;;;;;38.03;6.30;;;;;;;;;;5095393;28;20119;-73
2022/01/30 12:18:55;;;;;;;41.15;6.80;;;;;;;;;;5113078;28;20112;-75
2022/01/30 12:21:27;;;;;;;37.58;6.70;;;;;;;;;;5095273;28;20075;-77
2022/01/30 12:23:53;;;;;;;37.58;7.38;;;;;;;;;;5095314;28;20051;-78
2022/01/30 12:26:19;;;;;;;46.60;7.68;;;;;;;;;;5113115;28;20046;-77
2022/01/30 12:28:55;;;;;;;38.13;7.63;;;;;;;;;;5113025;28;20123;-80
2022/01/30 12:31:24;;;;;;;48.53;7.80;;;;;;;;;;5095423;28;20058;-81
2022/01/30 12:33:58;;;;;;;36.38;6.82;;;;;;;;;;5113122;28;20090;-79
2022/01/30 12:36:24;;;;;;;41.50;7.20;;;;;;;;;;5113282;28;20050;-78
2022/01/30 12:38:54;;;;;;;38.67;6.38;;;;;;;;;;5113072;28;20081;-80
2022/01/30 12:41:21;;;;;;;40.65;6.32;;;;;;;;;;5112986;28;20043;-80
2022/01/30 12:43:51;;;;;;;44.22;10.57;;;;;;;;;;5094809;28;20050;-80
2022/01/30 12:46:17;;;;;;;44.58;8.25;;;;;;;;;;5113082;28;20086;-79
2022/01/30 12:48:58;;;;;;;39.28;6.97;;;;;;;;;;5112789;28;20047;-79
2022/01/30 12:51:24;;;;;;;37.03;7.00;;;;;;;;;;5112766;28;20060;-79
2022/01/30 12:53:51;;;;;;;32.35;6.70;;;;;;;;;;5112813;28;20292;-79
2022/01/30 12:56:18;;;;;;;32.78;6.50;;;;;;;;;;5112865;28;20557;-79
2022/01/30 12:58:48;;;;;;;40.95;7.10;;;;;;;;;;5113027;28;20122;-78
2022/01/30 13:01:15;;;;;;;43.95;7.53;;;;;;;;;;5091157;28;20059;-80
2022/01/30 13:03:42;;;;;;;40.80;6.05;;;;;;;;;;5092561;28;20040;-78
2022/01/30 13:06:08;;;;;;;37.63;6.50;;;;;;;;;;5092310;28;20066;-80
2022/01/30 13:08:48;;;;;;;42.17;7.47;;;;;;;;;;5091278;28;20044;-79
2022/01/30 13:11:18;;;;;;;37.63;7.80;;;;;;;;;;5096626;28;20105;-78
2022/01/30 13:13:55;;;;;;;47.20;7.70;;;;;;;;;;5096548;28;20097;-80
2022/01/30 13:16:29;;;;;;;45.35;8.05;;;;;;;;;;5096482;28;20048;-79
2022/01/30 13:18:55;;;;;;;44.78;8.43;;;;;;;;;;5095038;28;20369;-80
2022/01/30 13:21:31;;;;;;;41.45;7.85;;;;;;;;;;5095522;28;20040;-79
2022/01/30 13:23:58;;;;;;;46.08;8.18;;;;;;;;;;5094963;28;20043;-80
2022/01/30 13:26:57;;;;;;;38.90;7.32;;;;;;;;;;5096209;28;20043;-79
2022/01/30 13:29:23;;;;;;;39.53;7.55;;;;;;;;;;5083712;28;20080;-78
2022/01/30 13:31:50;;;;;;;42.33;7.97;;;;;;;;;;5095208;28;20044;-78
2022/01/30 13:34:18;;;;;;;33.28;6.10;;;;;;;;;;5096161;28;20040;-79
2022/01/30 13:36:53;;;;;;;32.85;5.88;;;;;;;;;;5096010;28;20047;-77
2022/01/30 13:39:27;;;;;;;36.92;6.40;;;;;;;;;;5095974;28;20362;-79
2022/01/30 13:42:13;;;;;;;31.08;5.72;;;;;;;;;;5095859;28;20473;-78
2022/01/30 13:44:43;;;;;;;33.60;7.20;;;;;;;;;;5094971;28;20072;-79
2022/01/30 13:47:17;;;;;;;33.73;6.67;;;;;;;;;;5096116;28;20089;-79
2022/01/30 13:49:44;;;;;;;42.88;7.32;;;;;;;;;;5095647;28;20691;-79
2022/01/30 13:52:11;;;;;;;41.28;7.28;;;;;;;;;;5095824;28;20079;-79
2022/01/30 13:54:37;;;;;;;34.40;6.57;;;;;;;;;;5094791;28;20036;-78
2022/01/30 13:57:04;;;;;;;34.80;6.13;;;;;;;;;;5077843;28;20048;-78
2022/01/30 13:59:31;;;;;;;40.60;7.30;;;;;;;;;;5095620;28;20043;-78
2022/01/30 14:01:58;;;;;;;39.13;6.85;;;;;;;;;;5115275;28;20056;-79
2022/01/30 14:04:25;;;;;;;32.22;6.38;;;;;;;;;;5115920;28;20052;-78
2022/01/30 14:06:53;;;;;;;34.55;6.25;;;;;;;;;;5115748;28;20039;-79
2022/01/30 14:09:25;;;;;;;40.17;6.70;;;;;;;;;;5098067;28;20044;-78
2022/01/30 14:12:02;;;;;;;42.00;6.20;;;;;;;;;;5115678;28;20480;-79
2022/01/30 14:14:29;;;;;;;41.63;6.65;;;;;;;;;;5115688;28;20055;-78
2022/01/30 14:17:00;;;;;;;38.90;6.60;;;;;;;;;;5115595;28;20054;-78
2022/01/30 14:19:29;;;;;;;33.72;5.55;;;;;;;;;;5115276;28;20369;-78
2022/01/30 14:21:57;;;;;;;33.53;6.28;;;;;;;;;;5097517;28;20088;-78
2022/01/30 14:24:27;;;;;;;32.10;5.05;;;;;;;;;;5115659;28;20051;-78
2022/01/30 14:27:10;;;;;;;38.08;6.20;;;;;;;;;;5115567;28;20046;-79
2022/01/30 14:29:36;;;;;;;32.42;5.97;;;;;;;;;;5115447;28;20043;-78
2022/01/30 14:32:08;;;;;;;35.10;6.00;;;;;;;;;;5115238;28;20044;-78
2022/01/30 14:34:34;;;;;;;37.35;5.72;;;;;;;;;;5097243;28;20547;-78
2022/01/30 14:37:03;;;;;;;34.45;5.70;;;;;;;;;;5115298;28;20450;-80
2022/01/30 14:39:31;;;;;;;36.22;5.80;;;;;;;;;;5115083;28;20054;-78
2022/01/30 14:41:57;;;;;;;31.55;6.28;;;;;;;;;;5114936;28;20066;-77
2022/01/30 14:44:23;;;;;;;29.33;5.55;;;;;;;;;;5096709;28;20136;-78
2022/01/30 14:46:50;;;;;;;36.30;6.47;;;;;;;;;;5114927;28;20039;-78
2022/01/30 14:49:17;;;;;;;32.08;5.85;;;;;;;;;;5114994;28;20079;-79
2022/01/30 14:51:43;;;;;;;27.67;5.47;;;;;;;;;;5114780;28;20079;-78
2022/01/30 14:54:09;;;;;;;41.30;5.75;;;;;;;;;;5114962;28;20088;-78
2022/01/30 14:56:35;;;;;;;36.35;5.72;;;;;;;;;;5114683;28;20035;-78
2022/01/30 14:59:02;;;;;;;30.33;5.80;;;;;;;;;;5114717;28;20073;-79
2022/01/30 15:01:29;;;;;;;35.72;7.30;;;;;;;;;;5093036;28;20050;-78
2022/01/30 15:03:55;;;;;;;32.53;6.53;;;;;;;;;;5094373;28;20097;-78
2022/01/30 15:06:22;;;;;;;26.35;6.18;;;;;;;;;;5094113;28;20063;-79
2022/01/30 15:08:48;;;;;;;38.28;6.72;;;;;;;;;;5094196;28;20039;-79
2022/01/30 15:11:14;;;;;;;35.90;6.63;;;;;;;;;;5094217;28;20093;-78
2022/01/30 15:13:40;;;;;;;30.23;5.38;;;;;;;;;;5092940;28;20040;-78
2022/01/30 15:16:09;;;;;;;39.97;5.57;;;;;;;;;;5094152;28;20365;-79
2022/01/30 15:18:42;;;;;;;34.80;6.07;;;;;;;;;;5092620;28;20503;-78
2022/01/30 15:21:11;;;;;;;38.20;7.22;;;;;;;;;;5093900;28;20086;-77
2022/01/30 15:23:38;;;;;;;40.05;6.38;;;;;;;;;;5093816;28;20048;-74
2022/01/30 15:26:04;;;;;;;36.15;7.30;;;;;;;;;;5093779;28;20040;-75
2022/01/30 15:28:30;;;;;;;31.77;5.63;;;;;;;;;;5093124;28;20044;-75